createdAt,value
2019-06-20T00:00:44.157Z,81.26
2019-06-20T00:03:13.615Z,79.29
2019-06-20T00:05:42.795Z,78.65
2019-06-20T00:08:12.472Z,79.14
2019-06-20T00:10:42.010Z,81.06
2019-06-20T00:13:11.312Z,79.64
2019-06-20T00:15:41.104Z,78.48
2019-06-20T00:18:10.420Z,77.61
2019-06-20T00:20:39.701Z,77.49
2019-06-20T00:23:08.889Z,81.21
2019-06-20T00:25:38.148Z,79.20
2019-06-20T00:28:07.373Z,74.82
2019-06-20T00:30:36.622Z,74.23
2019-06-20T00:33:05.846Z,74.15
2019-06-20T00:35:35.138Z,76.83
2019-06-20T00:38:04.417Z,75.37
2019-06-20T00:40:33.616Z,74.60
2019-06-20T00:43:16.176Z,73.12
2019-06-20T00:45:33.772Z,71.79
2019-06-20T00:48:03.084Z,72.72
2019-06-20T00:50:32.281Z,76.80
2019-06-20T00:53:01.587Z,75.72
2019-06-20T00:55:30.847Z,74.22
2019-06-20T00:58:00.022Z,78.10
2019-06-20T01:00:29.185Z,79.30
2019-06-20T01:02:58.388Z,78.25
2019-06-20T01:05:27.572Z,78.05
2019-06-20T01:07:56.874Z,80.65
2019-06-20T01:10:26.072Z,78.79
2019-06-20T01:12:55.481Z,77.80
2019-06-20T01:15:24.905Z,76.39
2019-06-20T01:17:54.112Z,74.50
2019-06-20T01:20:23.397Z,76.14
2019-06-20T01:22:52.593Z,77.71
2019-06-20T01:25:36.162Z,80.72
2019-06-20T01:28:06.009Z,82.19
2019-06-20T01:30:35.417Z,77.98
2019-06-20T01:33:04.719Z,79.37
2019-06-20T01:35:33.889Z,78.64
2019-06-20T01:38:03.123Z,80.65
2019-06-20T01:40:32.411Z,85.54
2019-06-20T01:43:01.721Z,84.36
2019-06-20T01:45:30.897Z,83.10
2019-06-20T01:48:00.074Z,81.61
2019-06-20T01:50:29.204Z,82.14
2019-06-20T01:52:58.355Z,83.28
2019-06-20T01:55:27.601Z,82.29
2019-06-20T01:57:56.856Z,79.74
2019-06-20T02:00:47.892Z,76.73
2019-06-20T02:03:17.312Z,76.82
2019-06-20T02:05:46.496Z,77.00
2019-06-20T02:08:15.688Z,78.30
2019-06-20T02:10:44.950Z,77.30
2019-06-20T02:13:14.095Z,76.90
2019-06-20T02:15:43.292Z,84.51
2019-06-20T02:18:12.489Z,83.35
2019-06-20T02:20:47.753Z,79.71
2019-06-20T02:23:16.916Z,77.68
2019-06-20T02:25:46.180Z,77.52
2019-06-20T02:28:15.426Z,78.29
2019-06-20T02:30:44.617Z,77.37
2019-06-20T02:33:13.906Z,77.90
2019-06-20T02:35:43.391Z,77.99
2019-06-20T02:38:12.528Z,78.32
2019-06-20T02:40:41.916Z,78.45
2019-06-20T02:43:11.118Z,82.03
2019-06-20T02:45:40.462Z,81.19
2019-06-20T02:48:09.673Z,78.48
2019-06-20T02:50:38.846Z,77.55
2019-06-20T02:53:08.097Z,83.25
2019-06-20T02:55:37.279Z,85.62
2019-06-20T02:58:06.553Z,82.43
2019-06-20T03:00:52.969Z,79.36
2019-06-20T03:03:22.093Z,78.87
2019-06-20T03:05:51.245Z,80.92
2019-06-20T03:08:20.359Z,84.55
2019-06-20T03:10:49.521Z,85.93
2019-06-20T03:13:18.687Z,84.44
2019-06-20T03:15:49.998Z,83.75
2019-06-20T03:18:18.744Z,82.54
2019-06-20T03:20:48.041Z,81.15
2019-06-20T03:23:17.303Z,79.29
2019-06-20T03:25:46.481Z,77.97
2019-06-20T03:28:15.602Z,79.51
2019-06-20T03:30:44.898Z,79.22
2019-06-20T03:33:14.170Z,79.49
2019-06-20T03:35:43.369Z,82.36
2019-06-20T03:38:12.559Z,80.92
2019-06-20T03:40:41.752Z,80.49
2019-06-20T03:43:11.044Z,80.25
2019-06-20T03:45:40.213Z,80.32
2019-06-20T03:48:09.464Z,82.81
2019-06-20T03:50:38.602Z,84.97
2019-06-20T03:53:07.879Z,83.01
2019-06-20T03:55:37.092Z,80.03
2019-06-20T03:58:06.353Z,81.64
2019-06-20T04:00:36.240Z,80.15
2019-06-20T04:03:06.580Z,80.33
2019-06-20T04:05:36.585Z,80.63
2019-06-20T04:08:06.241Z,82.98
2019-06-20T04:10:35.682Z,81.72
2019-06-20T04:13:04.852Z,80.54
2019-06-20T04:15:34.312Z,79.20
2019-06-20T04:18:03.498Z,79.56
2019-06-20T04:20:32.671Z,78.46
2019-06-20T04:23:01.835Z,79.78
2019-06-20T04:25:31.088Z,82.41
2019-06-20T04:28:00.248Z,81.49
2019-06-20T04:30:29.427Z,81.73
2019-06-20T04:32:58.654Z,81.06
2019-06-20T04:35:27.809Z,79.93
2019-06-20T04:37:57.013Z,78.98
2019-06-20T04:40:26.204Z,77.98
2019-06-20T04:42:55.392Z,79.58
2019-06-20T04:45:43.581Z,80.69
2019-06-20T04:48:12.747Z,85.08
2019-06-20T04:50:41.906Z,85.16
2019-06-20T04:53:11.097Z,88.34
2019-06-20T04:55:40.266Z,87.62
2019-06-20T04:58:09.431Z,90.35
2019-06-20T05:00:38.576Z,90.04
2019-06-20T05:03:07.711Z,85.46
2019-06-20T05:05:36.890Z,83.76
2019-06-20T05:08:06.045Z,83.04
2019-06-20T05:10:35.213Z,84.42
2019-06-20T05:13:04.405Z,84.48
2019-06-20T05:15:33.675Z,84.21
2019-06-20T05:18:02.918Z,81.87
2019-06-20T05:20:32.106Z,80.81
2019-06-20T05:23:01.305Z,80.13
2019-06-20T05:25:30.629Z,79.24
2019-06-20T05:27:59.747Z,79.28
2019-06-20T05:30:29.196Z,79.38
2019-06-20T05:32:58.335Z,78.31
2019-06-20T05:35:27.526Z,79.20
2019-06-20T05:37:56.670Z,79.71
2019-06-20T05:40:25.861Z,78.91
2019-06-20T05:42:55.138Z,79.98
2019-06-20T05:45:24.352Z,81.24
2019-06-20T05:47:53.637Z,80.50
2019-06-20T05:50:22.802Z,77.38
2019-06-20T05:52:52.921Z,76.05
2019-06-20T05:55:22.168Z,76.58
2019-06-20T05:57:51.346Z,76.80
2019-06-20T06:00:20.873Z,79.13
2019-06-20T06:02:50.054Z,77.79
2019-06-20T06:05:19.422Z,77.89
2019-06-20T06:07:48.635Z,76.00
2019-06-20T06:10:18.077Z,77.18
2019-06-20T06:12:47.258Z,79.92
2019-06-20T06:15:16.995Z,77.62
2019-06-20T06:17:46.167Z,74.65
2019-06-20T06:20:16.478Z,72.82
2019-06-20T06:22:45.616Z,76.62
2019-06-20T06:25:15.623Z,72.82
2019-06-20T06:27:44.974Z,75.60
2019-06-20T06:30:14.508Z,77.25
2019-06-20T06:32:43.879Z,75.32
2019-06-20T06:35:13.699Z,72.55
2019-06-20T06:37:42.961Z,71.03
2019-06-20T06:40:13.959Z,74.74
2019-06-20T06:42:43.163Z,73.15
2019-06-20T06:45:13.418Z,71.34
2019-06-20T06:47:42.652Z,69.95
2019-06-20T06:50:13.736Z,70.59
2019-06-20T06:52:43.619Z,69.63
2019-06-20T06:55:13.061Z,70.06
2019-06-20T06:57:42.472Z,70.24
2019-06-20T07:00:13.532Z,71.56
2019-06-20T07:02:42.848Z,69.61
2019-06-20T07:05:12.378Z,69.82
2019-06-20T07:07:41.677Z,67.93
2019-06-20T07:10:11.061Z,67.67
2019-06-20T07:12:40.359Z,67.96
2019-06-20T07:15:10.174Z,68.93
2019-06-20T07:17:39.413Z,66.48
2019-06-20T07:20:10.323Z,65.75
2019-06-20T07:22:39.733Z,65.88
2019-06-20T07:25:10.360Z,65.11
2019-06-20T07:27:39.888Z,64.62
2019-06-20T07:30:09.651Z,66.48
2019-06-20T07:32:38.833Z,68.08
2019-06-20T07:35:08.966Z,67.23
2019-06-20T07:37:38.137Z,62.69
2019-06-20T07:40:08.508Z,64.74
2019-06-20T07:42:37.869Z,64.90
2019-06-20T07:45:07.911Z,60.49
2019-06-20T07:47:37.507Z,61.87
2019-06-20T07:50:07.176Z,56.33
2019-06-20T07:52:36.368Z,60.22
2019-06-20T07:55:06.323Z,60.44
2019-06-20T07:57:35.561Z,55.69
2019-06-20T08:00:06.253Z,61.04
2019-06-20T08:02:35.473Z,62.22
2019-06-20T08:05:05.459Z,59.01
2019-06-20T08:07:34.648Z,59.66
2019-06-20T08:10:04.778Z,58.19
2019-06-20T08:12:34.112Z,58.88
2019-06-20T08:15:14.583Z,56.15
2019-06-20T08:17:35.776Z,60.29
2019-06-20T08:20:06.152Z,59.96
2019-06-20T08:22:35.475Z,56.97
2019-06-20T08:25:05.921Z,56.02
2019-06-20T08:27:50.518Z,58.43
2019-06-20T08:30:28.209Z,55.70
2019-06-20T08:32:59.231Z,54.00
2019-06-20T08:35:30.789Z,56.65
2019-06-20T08:38:01.267Z,54.64
2019-06-20T08:40:33.214Z,55.88
2019-06-20T08:43:04.004Z,55.82
2019-06-20T08:45:34.607Z,53.55
2019-06-20T08:48:04.738Z,53.83
2019-06-20T08:50:34.105Z,51.63
2019-06-20T08:53:03.665Z,52.11
2019-06-20T08:55:32.857Z,49.31
2019-06-20T08:58:03.377Z,50.09
2019-06-20T09:00:34.927Z,50.65
2019-06-20T09:03:05.147Z,53.57
2019-06-20T09:05:34.390Z,56.37
2019-06-20T09:10:37.825Z,60.17
2019-06-20T09:13:08.294Z,58.50
2019-06-20T09:15:37.993Z,56.11
2019-06-20T09:18:07.433Z,54.82
2019-06-20T09:20:36.711Z,54.95
2019-06-20T09:23:05.913Z,50.76
2019-06-20T09:25:35.225Z,53.39
2019-06-20T09:28:05.800Z,52.90
2019-06-20T09:30:35.303Z,54.77
2019-06-20T09:33:04.796Z,56.06
2019-06-20T09:35:33.952Z,55.13
2019-06-20T09:38:03.500Z,54.58
2019-06-20T09:40:32.862Z,51.83
2019-06-20T09:43:02.874Z,51.35
2019-06-20T09:45:32.449Z,50.00
2019-06-20T09:48:02.713Z,49.38
2019-06-20T09:50:32.085Z,47.85
2019-06-20T09:53:01.278Z,47.72
2019-06-20T09:55:30.536Z,47.88
2019-06-20T09:57:59.724Z,49.73
2019-06-20T10:00:30.799Z,52.59
2019-06-20T10:03:00.069Z,52.70
2019-06-20T10:05:29.475Z,51.41
2019-06-20T10:07:58.657Z,47.54
2019-06-20T10:10:30.759Z,46.95
2019-06-20T10:12:59.989Z,48.18
2019-06-20T10:15:30.130Z,53.74
2019-06-20T10:17:59.395Z,53.18
2019-06-20T10:20:28.867Z,50.60
2019-06-20T10:22:58.062Z,50.10
2019-06-20T10:25:27.312Z,50.44
2019-06-20T10:27:57.841Z,49.82
2019-06-20T10:30:28.331Z,50.92
2019-06-20T10:32:57.885Z,52.51
2019-06-20T10:35:27.726Z,52.19
2019-06-20T10:37:57.314Z,57.69
2019-06-20T10:40:27.825Z,54.22
2019-06-20T10:42:57.564Z,53.37
2019-06-20T10:45:27.480Z,52.08
2019-06-20T10:47:56.726Z,61.14
2019-06-20T10:50:26.114Z,63.57
2019-06-20T10:52:55.396Z,64.13
2019-06-20T10:55:24.615Z,61.78
2019-06-20T10:57:54.564Z,63.32
2019-06-20T11:00:31.204Z,63.21
2019-06-20T11:02:55.621Z,63.78
2019-06-20T11:05:24.917Z,63.69
2019-06-20T11:07:54.138Z,63.36
2019-06-20T11:10:23.736Z,65.01
2019-06-20T11:12:56.043Z,63.00
2019-06-20T11:15:24.039Z,60.83
2019-06-20T11:17:56.414Z,64.48
2019-06-20T11:20:24.434Z,64.58
2019-06-20T11:22:53.697Z,64.65
2019-06-20T11:25:23.557Z,64.65
2019-06-20T11:27:52.866Z,66.06
2019-06-20T11:30:22.731Z,65.49
2019-06-20T11:32:51.922Z,64.54
2019-06-20T11:35:21.074Z,64.59
2019-06-20T11:37:50.301Z,62.93
2019-06-20T11:40:19.983Z,63.46
2019-06-20T11:42:49.369Z,57.67
2019-06-20T11:45:18.908Z,56.43
2019-06-20T11:47:48.075Z,58.81
2019-06-20T11:50:18.074Z,56.80
2019-06-20T11:52:47.269Z,56.36
2019-06-20T11:55:16.949Z,55.32
2019-06-20T11:57:46.169Z,57.29
2019-06-20T12:00:15.875Z,63.33
2019-06-20T12:02:46.179Z,61.78
2019-06-20T12:05:15.957Z,61.30
2019-06-20T12:07:45.696Z,63.52
2019-06-20T12:10:16.864Z,61.54
2019-06-20T12:12:46.939Z,62.20
2019-06-20T12:15:18.603Z,62.39
2019-06-20T12:17:49.345Z,56.70
2019-06-20T12:20:18.950Z,61.75
2019-06-20T12:22:50.454Z,61.09
2019-06-20T12:25:19.662Z,60.40
2019-06-20T12:27:49.774Z,61.00
2019-06-20T12:30:19.679Z,57.27
2019-06-20T12:32:49.346Z,55.59
2019-06-20T12:35:18.890Z,60.20
2019-06-20T12:37:49.752Z,64.13
2019-06-20T12:40:19.422Z,62.52
2019-06-20T12:42:49.347Z,64.26
2019-06-20T12:45:18.923Z,65.05
2019-06-20T12:47:48.115Z,64.02
2019-06-20T12:50:17.365Z,64.43
2019-06-20T12:52:47.581Z,64.49
2019-06-20T12:55:17.180Z,62.06
2019-06-20T12:57:48.515Z,63.64
2019-06-20T13:00:18.484Z,63.89
2019-06-20T13:02:48.000Z,65.37
2019-06-20T13:05:17.942Z,67.47
2019-06-20T13:07:48.333Z,69.12
2019-06-20T13:10:18.381Z,66.43
2019-06-20T13:12:48.835Z,64.42
2019-06-20T13:15:18.288Z,65.99
2019-06-20T13:17:48.914Z,66.25
2019-06-20T13:20:18.769Z,68.36
2019-06-20T13:22:49.582Z,66.24
2019-06-20T13:25:19.069Z,68.25
2019-06-20T13:27:50.025Z,68.50
2019-06-20T13:30:19.387Z,67.73
2019-06-20T13:32:48.942Z,72.21
2019-06-20T13:35:18.801Z,76.76
2019-06-20T13:37:49.860Z,76.63
2019-06-20T13:40:19.437Z,74.67
2019-06-20T13:42:50.303Z,71.01
2019-06-20T13:45:22.557Z,69.90
2019-06-20T13:47:52.039Z,74.17
2019-06-20T13:50:22.802Z,77.45
2019-06-20T13:52:52.130Z,76.66
2019-06-20T13:55:20.415Z,77.45
2019-06-20T13:57:49.205Z,77.15
2019-06-20T14:00:19.351Z,75.15
2019-06-20T14:02:48.953Z,72.65
2019-06-20T14:05:18.430Z,70.60
2019-06-20T14:07:48.401Z,67.95
2019-06-20T14:10:17.114Z,65.60
2019-06-20T14:12:46.731Z,68.63
2019-06-20T14:15:15.365Z,68.96
2019-06-20T14:17:44.936Z,67.87
2019-06-20T14:20:14.027Z,68.83
2019-06-20T14:22:42.888Z,68.76
2019-06-20T14:25:11.258Z,68.86
2019-06-20T14:27:39.488Z,70.46
2019-06-20T14:30:08.089Z,70.33
2019-06-20T14:32:36.320Z,70.76
2019-06-20T14:35:04.755Z,71.47
2019-06-20T14:37:33.042Z,69.41
2019-06-20T14:40:01.484Z,68.74
2019-06-20T14:42:29.866Z,69.87
2019-06-20T14:44:58.008Z,66.35
2019-06-20T14:47:26.149Z,63.81
2019-06-20T14:49:54.371Z,64.93
2019-06-20T14:52:22.500Z,65.49
2019-06-20T14:54:51.747Z,68.76
2019-06-20T14:57:20.144Z,67.54
2019-06-20T14:59:49.878Z,69.01
2019-06-20T15:02:18.207Z,69.43
2019-06-20T15:04:47.594Z,69.31
2019-06-20T15:07:15.964Z,70.14
2019-06-20T15:09:44.427Z,69.98
2019-06-20T15:12:15.163Z,68.53
2019-06-20T15:14:44.490Z,65.93
2019-06-20T15:17:13.417Z,65.33
2019-06-20T15:19:41.814Z,61.75
2019-06-20T15:22:10.061Z,60.06
2019-06-20T15:24:38.338Z,62.23
2019-06-20T15:27:06.610Z,61.00
2019-06-20T15:29:37.850Z,62.38
2019-06-20T15:32:06.010Z,60.73
2019-06-20T15:34:34.259Z,61.71
2019-06-20T15:37:06.190Z,64.30
2019-06-20T15:39:32.704Z,66.43
2019-06-20T15:42:00.921Z,65.40
2019-06-20T15:44:29.139Z,65.84
2019-06-20T15:46:57.442Z,66.54
2019-06-20T15:49:25.660Z,66.96
2019-06-20T15:51:53.833Z,66.27
2019-06-20T15:54:24.480Z,67.66
2019-06-20T15:56:51.885Z,68.35
2019-06-20T15:59:20.060Z,67.58
2019-06-20T16:01:48.214Z,68.35
2019-06-20T16:04:16.379Z,68.17
2019-06-20T16:06:44.642Z,68.15
2019-06-20T16:09:13.021Z,66.78
2019-06-20T16:11:41.312Z,66.64
2019-06-20T16:14:09.524Z,66.22
2019-06-20T16:16:37.714Z,65.43
2019-06-20T16:19:05.901Z,67.02
2019-06-20T16:21:34.102Z,68.18
2019-06-20T16:24:02.293Z,67.56
2019-06-20T16:26:30.540Z,69.84
2019-06-20T16:28:58.713Z,68.87
2019-06-20T16:31:27.368Z,67.36
2019-06-20T16:33:55.545Z,68.28
2019-06-20T16:36:23.810Z,67.99
2019-06-20T16:38:52.017Z,67.65
2019-06-20T16:41:20.234Z,67.78
2019-06-20T16:43:48.409Z,68.74
2019-06-20T16:46:16.604Z,70.90
2019-06-20T16:48:44.817Z,68.81
2019-06-20T16:51:12.939Z,69.78
2019-06-20T16:53:41.146Z,68.48
2019-06-20T16:56:09.315Z,66.78
2019-06-20T16:58:37.576Z,67.18
2019-06-20T17:01:05.777Z,64.57
2019-06-20T17:03:41.762Z,66.54
2019-06-20T17:06:04.005Z,66.04
2019-06-20T17:08:32.893Z,66.15
2019-06-20T17:11:01.128Z,66.80
2019-06-20T17:13:29.306Z,67.69
2019-06-20T17:15:57.460Z,66.44
2019-06-20T17:18:25.655Z,68.28
2019-06-20T17:20:53.773Z,67.58
2019-06-20T17:23:21.985Z,69.88
2019-06-20T17:25:50.219Z,68.87
2019-06-20T17:28:18.443Z,67.15
2019-06-20T17:30:46.693Z,68.30
2019-06-20T17:33:14.890Z,68.38
2019-06-20T17:35:43.150Z,70.26
2019-06-20T17:38:11.386Z,69.37
2019-06-20T17:40:39.725Z,68.80
2019-06-20T17:43:08.016Z,69.76
2019-06-20T17:45:36.200Z,70.76
2019-06-20T17:48:04.490Z,70.68
2019-06-20T17:50:32.628Z,72.06
2019-06-20T17:53:00.822Z,70.57
2019-06-20T17:55:29.193Z,71.35
2019-06-20T17:57:57.466Z,70.63
2019-06-20T18:00:25.816Z,72.29
2019-06-20T18:02:53.973Z,70.09
2019-06-20T18:05:22.207Z,71.52
2019-06-20T18:07:50.377Z,71.50
2019-06-20T18:10:18.894Z,68.94
2019-06-20T18:12:47.050Z,67.84
2019-06-20T18:15:15.453Z,68.63
2019-06-20T18:17:43.726Z,69.97
2019-06-20T18:20:11.996Z,67.95
2019-06-20T18:22:40.158Z,68.49
2019-06-20T18:25:08.477Z,68.36
2019-06-20T18:27:36.636Z,70.04
2019-06-20T18:30:05.612Z,68.29
2019-06-20T18:32:33.858Z,68.97
2019-06-20T18:35:02.789Z,69.81
2019-06-20T18:37:31.890Z,69.91
2019-06-20T18:40:00.205Z,71.14
2019-06-20T18:42:28.479Z,71.00
2019-06-20T18:44:56.969Z,72.41
2019-06-20T18:47:25.295Z,72.32
2019-06-20T18:49:53.584Z,70.21
2019-06-20T18:52:21.883Z,72.22
2019-06-20T18:54:49.978Z,73.59
2019-06-20T18:57:18.234Z,73.53
2019-06-20T18:59:46.558Z,74.71
2019-06-20T19:02:14.911Z,75.54
2019-06-20T19:04:49.726Z,73.64
2019-06-20T19:07:13.607Z,72.97
2019-06-20T19:09:41.926Z,73.33
2019-06-20T19:12:10.248Z,73.92
2019-06-20T19:14:40.730Z,74.82
2019-06-20T19:17:09.065Z,75.13
2019-06-20T19:19:38.052Z,75.19
2019-06-20T19:22:06.713Z,77.11
2019-06-20T19:24:35.010Z,76.62
2019-06-20T19:27:03.173Z,76.79
2019-06-20T19:29:31.370Z,77.26
2019-06-20T19:31:59.617Z,76.24
2019-06-20T19:34:27.945Z,74.85
2019-06-20T19:36:56.149Z,75.27
2019-06-20T19:39:24.435Z,74.41
2019-06-20T19:41:52.680Z,76.80
2019-06-20T19:44:20.834Z,77.11
2019-06-20T19:46:48.959Z,76.33
2019-06-20T19:49:17.376Z,77.11
2019-06-20T19:51:45.536Z,75.57
2019-06-20T19:54:13.794Z,75.28
2019-06-20T19:56:42.068Z,76.21
2019-06-20T19:59:10.297Z,75.58
2019-06-20T20:01:38.441Z,74.66
2019-06-20T20:04:06.778Z,75.37
2019-06-20T20:06:35.028Z,75.86
2019-06-20T20:09:03.736Z,75.76
2019-06-20T20:11:31.982Z,75.76
2019-06-20T20:14:00.112Z,75.45
2019-06-20T20:16:28.346Z,76.24
2019-06-20T20:18:57.579Z,75.42
2019-06-20T20:21:26.771Z,74.76
2019-06-20T20:23:55.997Z,75.60
2019-06-20T20:26:25.232Z,73.93
2019-06-20T20:28:54.514Z,74.02
2019-06-20T20:31:23.733Z,73.64
2019-06-20T20:33:52.961Z,74.35
2019-06-20T20:36:25.246Z,74.04
2019-06-20T20:38:53.085Z,73.30
2019-06-20T20:41:22.316Z,73.26
2019-06-20T20:43:51.542Z,72.92
2019-06-20T20:46:20.923Z,72.76
2019-06-20T20:48:50.118Z,74.03
2019-06-20T20:51:19.347Z,74.90
2019-06-20T20:53:48.505Z,75.20
2019-06-20T20:56:17.737Z,76.37
2019-06-20T20:58:46.901Z,76.65
2019-06-20T21:01:41.386Z,76.46
2019-06-20T21:04:10.610Z,77.08
2019-06-20T21:06:39.848Z,75.54
2019-06-20T21:09:09.261Z,74.54
2019-06-20T21:11:38.499Z,75.50
2019-06-20T21:14:07.732Z,73.80
2019-06-20T21:16:36.973Z,73.48
2019-06-20T21:19:06.200Z,73.29
2019-06-20T21:21:35.474Z,72.43
2019-06-20T21:24:04.683Z,71.40
2019-06-20T21:26:48.366Z,70.65
2019-06-20T21:29:04.866Z,69.99
2019-06-20T21:31:34.069Z,70.14
2019-06-20T21:34:03.261Z,69.76
2019-06-20T21:36:32.473Z,70.24
2019-06-20T21:39:01.688Z,70.00
2019-06-20T21:41:30.934Z,69.47
2019-06-20T21:44:00.150Z,68.87
2019-06-20T21:46:29.334Z,67.57
2019-06-20T21:48:58.533Z,67.02
2019-06-20T21:51:27.758Z,66.49
2019-06-20T21:53:57.139Z,67.17
2019-06-20T21:56:26.364Z,67.58
2019-06-20T21:58:55.630Z,68.69
2019-06-20T22:01:25.029Z,68.51
2019-06-20T22:03:54.241Z,68.06
2019-06-20T22:06:24.267Z,67.65
2019-06-20T22:08:53.524Z,67.10
2019-06-20T22:11:22.730Z,67.46
2019-06-20T22:13:51.947Z,67.77
2019-06-20T22:16:21.132Z,66.89
2019-06-20T22:18:50.310Z,67.20
2019-06-20T22:21:19.469Z,65.98
2019-06-20T22:23:48.673Z,66.60
2019-06-20T22:26:17.891Z,66.93
2019-06-20T22:28:47.065Z,67.20
2019-06-20T22:31:16.239Z,66.13
2019-06-20T22:33:45.457Z,68.06
2019-06-20T22:36:14.698Z,68.59
2019-06-20T22:38:43.933Z,67.16
2019-06-20T22:41:13.164Z,66.69
2019-06-20T22:43:42.381Z,66.49
2019-06-20T22:46:11.643Z,66.41
2019-06-20T22:48:40.843Z,66.24
2019-06-20T22:51:10.043Z,65.89
2019-06-20T22:53:41.107Z,65.80
2019-06-20T22:56:10.360Z,65.68
2019-06-20T22:58:39.668Z,66.26
2019-06-20T23:01:08.854Z,66.38
2019-06-20T23:03:38.074Z,65.08
2019-06-20T23:06:07.323Z,67.33
2019-06-20T23:08:36.563Z,68.82
2019-06-20T23:11:05.782Z,67.12
2019-06-20T23:13:34.958Z,66.97
2019-06-20T23:16:04.198Z,66.95
2019-06-20T23:18:33.415Z,66.92
2019-06-20T23:21:04.938Z,66.02
2019-06-20T23:23:33.703Z,66.38
2019-06-20T23:26:05.405Z,66.05
2019-06-20T23:28:34.588Z,66.43
2019-06-20T23:31:03.808Z,65.39
2019-06-20T23:33:33.012Z,65.28
2019-06-20T23:36:02.304Z,64.93
2019-06-20T23:38:31.469Z,64.69
2019-06-20T23:41:00.696Z,65.60
2019-06-20T23:43:29.889Z,67.75
2019-06-20T23:45:59.084Z,66.28
2019-06-20T23:48:28.262Z,64.97
2019-06-20T23:50:57.481Z,64.85
2019-06-20T23:53:28.197Z,64.93
2019-06-20T23:55:57.465Z,64.44
2019-06-20T23:58:26.770Z,64.78
